sensor_id;sensor_type;location;lat;lon;timestamp;P1;durP1;ratioP1;P2;durP2;ratioP2
5022;SDS011;2530;47.990;7.866;2024-03-02T00:00:00;2.67;;;2.47;;
5022;SDS011;2530;47.990;7.866;2024-03-02T00:02:27;4.03;;;2.40;;
5022;SDS011;2530;47.990;7.866;2024-03-02T00:04:53;2.83;;;2.63;;
5022;SDS011;2530;47.990;7.866;2024-03-02T00:07:19;3.53;;;2.80;;
5022;SDS011;2530;47.990;7.866;2024-03-02T00:09:44;3.50;;;2.80;;
5022;SDS011;2530;47.990;7.866;2024-03-02T00:12:11;3.20;;;2.60;;
5022;SDS011;2530;47.990;7.866;2024-03-02T00:14:41;2.55;;;2.35;;
5022;SDS011;2530;47.990;7.866;2024-03-02T00:17:08;3.13;;;2.50;;
5022;SDS011;2530;47.990;7.866;2024-03-02T00:19:46;2.53;;;2.30;;
5022;SDS011;2530;47.990;7.866;2024-03-02T00:22:11;2.70;;;2.50;;
5022;SDS011;2530;47.990;7.866;2024-03-02T00:24:37;2.22;;;2.03;;
5022;SDS011;2530;47.990;7.866;2024-03-02T00:27:04;3.60;;;2.80;;
5022;SDS011;2530;47.990;7.866;2024-03-02T00:29:32;2.50;;;2.30;;
5022;SDS011;2530;47.990;7.866;2024-03-02T00:31:58;3.20;;;2.20;;
5022;SDS011;2530;47.990;7.866;2024-03-02T00:34:23;3.20;;;2.60;;
5022;SDS011;2530;47.990;7.866;2024-03-02T00:36:49;2.60;;;2.20;;
5022;SDS011;2530;47.990;7.866;2024-03-02T00:39:16;2.50;;;2.30;;
5022;SDS011;2530;47.990;7.866;2024-03-02T00:41:42;2.88;;;2.10;;
5022;SDS011;2530;47.990;7.866;2024-03-02T00:44:12;3.40;;;2.63;;
5022;SDS011;2530;47.990;7.866;2024-03-02T00:46:38;2.45;;;2.25;;
5022;SDS011;2530;47.990;7.866;2024-03-02T00:51:44;2.90;;;2.60;;
5022;SDS011;2530;47.990;7.866;2024-03-02T00:54:13;2.20;;;2.00;;
5022;SDS011;2530;47.990;7.866;2024-03-02T00:56:40;3.55;;;2.85;;
5022;SDS011;2530;47.990;7.866;2024-03-02T00:59:07;2.70;;;2.50;;
5022;SDS011;2530;47.990;7.866;2024-03-02T01:01:33;2.80;;;2.50;;
5022;SDS011;2530;47.990;7.866;2024-03-02T01:03:59;2.37;;;2.17;;
5022;SDS011;2530;47.990;7.866;2024-03-02T01:06:24;2.47;;;2.10;;
5022;SDS011;2530;47.990;7.866;2024-03-02T01:08:50;2.93;;;2.43;;
5022;SDS011;2530;47.990;7.866;2024-03-02T01:11:16;3.40;;;2.40;;
5022;SDS011;2530;47.990;7.866;2024-03-02T01:13:43;2.80;;;2.50;;
5022;SDS011;2530;47.990;7.866;2024-03-02T01:16:08;4.30;;;2.85;;
5022;SDS011;2530;47.990;7.866;2024-03-02T01:18:34;3.63;;;2.80;;
5022;SDS011;2530;47.990;7.866;2024-03-02T01:20:59;2.90;;;2.40;;
5022;SDS011;2530;47.990;7.866;2024-03-02T01:23:26;2.90;;;2.60;;
5022;SDS011;2530;47.990;7.866;2024-03-02T01:25:51;2.80;;;2.60;;
5022;SDS011;2530;47.990;7.866;2024-03-02T01:28:18;2.90;;;2.60;;
5022;SDS011;2530;47.990;7.866;2024-03-02T01:30:45;2.97;;;2.40;;
5022;SDS011;2530;47.990;7.866;2024-03-02T01:33:11;2.40;;;2.20;;
5022;SDS011;2530;47.990;7.866;2024-03-02T01:35:36;2.70;;;2.50;;
5022;SDS011;2530;47.990;7.866;2024-03-02T01:38:02;2.80;;;2.50;;
5022;SDS011;2530;47.990;7.866;2024-03-02T01:40:30;3.10;;;2.80;;
5022;SDS011;2530;47.990;7.866;2024-03-02T01:42:57;2.60;;;2.40;;
5022;SDS011;2530;47.990;7.866;2024-03-02T01:45:25;3.45;;;2.70;;
5022;SDS011;2530;47.990;7.866;2024-03-02T01:47:51;2.70;;;2.50;;
5022;SDS011;2530;47.990;7.866;2024-03-02T01:50:24;2.50;;;2.30;;
5022;SDS011;2530;47.990;7.866;2024-03-02T01:52:50;2.70;;;2.50;;
5022;SDS011;2530;47.990;7.866;2024-03-02T01:55:16;2.63;;;2.42;;
5022;SDS011;2530;47.990;7.866;2024-03-02T01:57:42;2.70;;;2.37;;
5022;SDS011;2530;47.990;7.866;2024-03-02T02:00:09;2.70;;;2.47;;
5022;SDS011;2530;47.990;7.866;2024-03-02T02:02:35;2.92;;;2.60;;
5022;SDS011;2530;47.990;7.866;2024-03-02T02:05:01;3.57;;;2.50;;
5022;SDS011;2530;47.990;7.866;2024-03-02T02:07:27;2.40;;;2.10;;
5022;SDS011;2530;47.990;7.866;2024-03-02T02:09:52;2.37;;;2.17;;
5022;SDS011;2530;47.990;7.866;2024-03-02T02:12:18;3.72;;;2.63;;
5022;SDS011;2530;47.990;7.866;2024-03-02T02:14:47;2.90;;;2.38;;
5022;SDS011;2530;47.990;7.866;2024-03-02T02:17:14;2.50;;;2.30;;
5022;SDS011;2530;47.990;7.866;2024-03-02T02:19:40;2.70;;;2.30;;
5022;SDS011;2530;47.990;7.866;2024-03-02T02:22:06;2.40;;;2.17;;
5022;SDS011;2530;47.990;7.866;2024-03-02T02:24:31;3.53;;;2.60;;
5022;SDS011;2530;47.990;7.866;2024-03-02T02:26:57;2.63;;;2.40;;
5022;SDS011;2530;47.990;7.866;2024-03-02T02:29:22;2.80;;;2.60;;
5022;SDS011;2530;47.990;7.866;2024-03-02T02:31:48;2.63;;;2.20;;
5022;SDS011;2530;47.990;7.866;2024-03-02T02:34:14;2.25;;;2.05;;
5022;SDS011;2530;47.990;7.866;2024-03-02T02:36:40;3.10;;;2.30;;
5022;SDS011;2530;47.990;7.866;2024-03-02T02:39:09;3.45;;;2.70;;
5022;SDS011;2530;47.990;7.866;2024-03-02T02:41:37;3.00;;;2.70;;
5022;SDS011;2530;47.990;7.866;2024-03-02T02:44:03;2.50;;;2.30;;
5022;SDS011;2530;47.990;7.866;2024-03-02T02:46:28;2.47;;;2.27;;
5022;SDS011;2530;47.990;7.866;2024-03-02T02:48:54;2.67;;;2.47;;
5022;SDS011;2530;47.990;7.866;2024-03-02T02:51:19;2.90;;;2.50;;
5022;SDS011;2530;47.990;7.866;2024-03-02T02:53:45;2.60;;;2.00;;
5022;SDS011;2530;47.990;7.866;2024-03-02T02:56:11;2.90;;;2.67;;
5022;SDS011;2530;47.990;7.866;2024-03-02T02:58:36;2.37;;;2.17;;
5022;SDS011;2530;47.990;7.866;2024-03-02T03:01:02;2.90;;;2.70;;
5022;SDS011;2530;47.990;7.866;2024-03-02T03:03:27;3.03;;;2.57;;
5022;SDS011;2530;47.990;7.866;2024-03-02T03:05:53;2.60;;;2.40;;
5022;SDS011;2530;47.990;7.866;2024-03-02T03:08:18;2.30;;;2.00;;
5022;SDS011;2530;47.990;7.866;2024-03-02T03:10:44;3.30;;;2.30;;
5022;SDS011;2530;47.990;7.866;2024-03-02T03:13:10;2.58;;;2.08;;
5022;SDS011;2530;47.990;7.866;2024-03-02T03:15:35;2.30;;;2.10;;
5022;SDS011;2530;47.990;7.866;2024-03-02T03:18:04;3.50;;;2.03;;
5022;SDS011;2530;47.990;7.866;2024-03-02T03:20:30;2.17;;;1.98;;
5022;SDS011;2530;47.990;7.866;2024-03-02T03:22:56;2.38;;;1.80;;
5022;SDS011;2530;47.990;7.866;2024-03-02T03:25:21;2.00;;;1.65;;
5022;SDS011;2530;47.990;7.866;2024-03-02T03:27:47;2.40;;;2.10;;
5022;SDS011;2530;47.990;7.866;2024-03-02T03:30:13;2.15;;;1.95;;
5022;SDS011;2530;47.990;7.866;2024-03-02T03:32:39;3.85;;;2.03;;
5022;SDS011;2530;47.990;7.866;2024-03-02T03:35:05;2.40;;;1.90;;
5022;SDS011;2530;47.990;7.866;2024-03-02T03:37:31;2.08;;;1.70;;
5022;SDS011;2530;47.990;7.866;2024-03-02T03:39:58;2.25;;;1.80;;
5022;SDS011;2530;47.990;7.866;2024-03-02T03:42:24;1.98;;;1.65;;
5022;SDS011;2530;47.990;7.866;2024-03-02T03:44:50;2.33;;;2.13;;
5022;SDS011;2530;47.990;7.866;2024-03-02T03:47:15;2.30;;;1.83;;
5022;SDS011;2530;47.990;7.866;2024-03-02T03:49:41;3.03;;;1.80;;
5022;SDS011;2530;47.990;7.866;2024-03-02T03:52:06;1.70;;;1.60;;
5022;SDS011;2530;47.990;7.866;2024-03-02T03:54:32;2.00;;;1.80;;
5022;SDS011;2530;47.990;7.866;2024-03-02T03:56:57;1.73;;;1.58;;
5022;SDS011;2530;47.990;7.866;2024-03-02T03:59:23;1.90;;;1.80;;
5022;SDS011;2530;47.990;7.866;2024-03-02T04:01:48;2.13;;;1.70;;
5022;SDS011;2530;47.990;7.866;2024-03-02T04:04:14;2.20;;;1.90;;
5022;SDS011;2530;47.990;7.866;2024-03-02T04:06:39;2.30;;;1.77;;
5022;SDS011;2530;47.990;7.866;2024-03-02T04:09:05;1.80;;;1.70;;
5022;SDS011;2530;47.990;7.866;2024-03-02T04:11:31;2.00;;;1.60;;
5022;SDS011;2530;47.990;7.866;2024-03-02T04:13:56;1.70;;;1.60;;
5022;SDS011;2530;47.990;7.866;2024-03-02T04:16:22;1.70;;;1.57;;
5022;SDS011;2530;47.990;7.866;2024-03-02T04:18:47;1.50;;;1.40;;
5022;SDS011;2530;47.990;7.866;2024-03-02T04:21:13;2.07;;;1.50;;
5022;SDS011;2530;47.990;7.866;2024-03-02T04:23:39;2.83;;;1.40;;
5022;SDS011;2530;47.990;7.866;2024-03-02T04:26:04;2.50;;;2.30;;
5022;SDS011;2530;47.990;7.866;2024-03-02T04:28:30;1.50;;;1.40;;
5022;SDS011;2530;47.990;7.866;2024-03-02T04:30:55;1.50;;;1.30;;
5022;SDS011;2530;47.990;7.866;2024-03-02T04:33:21;1.60;;;1.38;;
5022;SDS011;2530;47.990;7.866;2024-03-02T04:35:47;1.65;;;1.48;;
5022;SDS011;2530;47.990;7.866;2024-03-02T04:38:12;1.90;;;1.60;;
5022;SDS011;2530;47.990;7.866;2024-03-02T04:40:38;1.70;;;1.60;;
5022;SDS011;2530;47.990;7.866;2024-03-02T04:43:03;1.60;;;1.50;;
5022;SDS011;2530;47.990;7.866;2024-03-02T04:45:29;2.00;;;1.80;;
5022;SDS011;2530;47.990;7.866;2024-03-02T04:47:54;2.20;;;1.10;;
5022;SDS011;2530;47.990;7.866;2024-03-02T04:50:20;1.83;;;1.47;;
5022;SDS011;2530;47.990;7.866;2024-03-02T04:52:45;1.40;;;1.30;;
5022;SDS011;2530;47.990;7.866;2024-03-02T04:55:11;2.20;;;1.60;;
5022;SDS011;2530;47.990;7.866;2024-03-02T04:57:55;2.40;;;1.20;;
5022;SDS011;2530;47.990;7.866;2024-03-02T05:00:21;1.63;;;1.17;;
5022;SDS011;2530;47.990;7.866;2024-03-02T05:02:46;1.40;;;1.30;;
5022;SDS011;2530;47.990;7.866;2024-03-02T05:05:12;1.80;;;1.30;;
5022;SDS011;2530;47.990;7.866;2024-03-02T05:07:40;1.98;;;1.30;;
5022;SDS011;2530;47.990;7.866;2024-03-02T05:10:07;2.40;;;1.50;;
5022;SDS011;2530;47.990;7.866;2024-03-02T05:12:33;1.98;;;1.33;;
5022;SDS011;2530;47.990;7.866;2024-03-02T05:15:08;2.30;;;1.30;;
5022;SDS011;2530;47.990;7.866;2024-03-02T05:17:35;2.00;;;1.13;;
5022;SDS011;2530;47.990;7.866;2024-03-02T05:20:01;3.10;;;1.30;;
5022;SDS011;2530;47.990;7.866;2024-03-02T05:22:27;1.63;;;1.50;;
5022;SDS011;2530;47.990;7.866;2024-03-02T05:24:53;1.60;;;1.50;;
5022;SDS011;2530;47.990;7.866;2024-03-02T05:27:19;1.87;;;1.67;;
5022;SDS011;2530;47.990;7.866;2024-03-02T05:29:44;2.05;;;1.27;;
5022;SDS011;2530;47.990;7.866;2024-03-02T05:32:10;1.50;;;1.35;;
5022;SDS011;2530;47.990;7.866;2024-03-02T05:34:35;1.75;;;1.48;;
5022;SDS011;2530;47.990;7.866;2024-03-02T05:37:01;1.60;;;1.50;;
5022;SDS011;2530;47.990;7.866;2024-03-02T05:39:27;1.60;;;1.40;;
5022;SDS011;2530;47.990;7.866;2024-03-02T05:41:52;2.70;;;1.70;;
5022;SDS011;2530;47.990;7.866;2024-03-02T05:44:18;5.10;;;1.70;;
5022;SDS011;2530;47.990;7.866;2024-03-02T05:46:44;1.52;;;1.30;;
5022;SDS011;2530;47.990;7.866;2024-03-02T05:49:10;1.63;;;1.50;;
5022;SDS011;2530;47.990;7.866;2024-03-02T05:51:36;2.00;;;1.80;;
5022;SDS011;2530;47.990;7.866;2024-03-02T05:54:01;1.70;;;1.60;;
5022;SDS011;2530;47.990;7.866;2024-03-02T05:56:27;2.43;;;1.53;;
5022;SDS011;2530;47.990;7.866;2024-03-02T05:58:52;2.50;;;1.52;;
5022;SDS011;2530;47.990;7.866;2024-03-02T06:01:32;2.03;;;1.23;;
5022;SDS011;2530;47.990;7.866;2024-03-02T06:03:58;2.30;;;1.50;;
5022;SDS011;2530;47.990;7.866;2024-03-02T06:06:24;2.10;;;1.23;;
5022;SDS011;2530;47.990;7.866;2024-03-02T06:08:50;2.50;;;1.42;;
5022;SDS011;2530;47.990;7.866;2024-03-02T06:11:15;1.42;;;1.30;;
5022;SDS011;2530;47.990;7.866;2024-03-02T06:13:41;1.60;;;1.42;;
5022;SDS011;2530;47.990;7.866;2024-03-02T06:16:07;1.70;;;1.17;;
5022;SDS011;2530;47.990;7.866;2024-03-02T06:18:33;1.80;;;1.37;;
5022;SDS011;2530;47.990;7.866;2024-03-02T06:20:59;1.60;;;1.42;;
5022;SDS011;2530;47.990;7.866;2024-03-02T06:23:25;1.40;;;1.10;;
5022;SDS011;2530;47.990;7.866;2024-03-02T06:25:51;2.08;;;1.23;;
5022;SDS011;2530;47.990;7.866;2024-03-02T06:28:17;1.45;;;1.30;;
5022;SDS011;2530;47.990;7.866;2024-03-02T06:30:43;2.88;;;1.70;;
5022;SDS011;2530;47.990;7.866;2024-03-02T06:33:09;1.60;;;1.30;;
5022;SDS011;2530;47.990;7.866;2024-03-02T06:35:34;1.70;;;1.60;;
5022;SDS011;2530;47.990;7.866;2024-03-02T06:38:00;3.50;;;1.60;;
5022;SDS011;2530;47.990;7.866;2024-03-02T06:40:26;1.50;;;1.40;;
5022;SDS011;2530;47.990;7.866;2024-03-02T06:42:52;1.70;;;1.60;;
5022;SDS011;2530;47.990;7.866;2024-03-02T06:45:17;1.70;;;1.60;;
5022;SDS011;2530;47.990;7.866;2024-03-02T06:47:43;1.60;;;1.50;;
5022;SDS011;2530;47.990;7.866;2024-03-02T06:50:09;1.90;;;1.70;;
5022;SDS011;2530;47.990;7.866;2024-03-02T06:52:34;1.60;;;1.50;;
5022;SDS011;2530;47.990;7.866;2024-03-02T06:55:01;3.10;;;1.50;;
5022;SDS011;2530;47.990;7.866;2024-03-02T06:57:26;2.90;;;1.53;;
5022;SDS011;2530;47.990;7.866;2024-03-02T06:59:52;1.80;;;1.50;;
5022;SDS011;2530;47.990;7.866;2024-03-02T07:02:19;1.50;;;1.40;;
5022;SDS011;2530;47.990;7.866;2024-03-02T07:04:46;1.60;;;1.30;;
5022;SDS011;2530;47.990;7.866;2024-03-02T07:07:11;2.65;;;1.40;;
5022;SDS011;2530;47.990;7.866;2024-03-02T07:09:37;1.70;;;1.60;;
5022;SDS011;2530;47.990;7.866;2024-03-02T07:12:03;2.05;;;1.85;;
5022;SDS011;2530;47.990;7.866;2024-03-02T07:14:28;2.25;;;1.70;;
5022;SDS011;2530;47.990;7.866;2024-03-02T07:17:13;2.33;;;1.70;;
5022;SDS011;2530;47.990;7.866;2024-03-02T07:19:38;2.50;;;1.80;;
5022;SDS011;2530;47.990;7.866;2024-03-02T07:22:07;2.03;;;1.60;;
5022;SDS011;2530;47.990;7.866;2024-03-02T07:24:39;2.10;;;1.70;;
5022;SDS011;2530;47.990;7.866;2024-03-02T07:27:05;2.90;;;1.83;;
5022;SDS011;2530;47.990;7.866;2024-03-02T07:29:31;1.60;;;1.50;;
5022;SDS011;2530;47.990;7.866;2024-03-02T07:31:57;1.83;;;1.70;;
5022;SDS011;2530;47.990;7.866;2024-03-02T07:34:22;2.00;;;1.53;;
5022;SDS011;2530;47.990;7.866;2024-03-02T07:36:48;2.10;;;1.90;;
5022;SDS011;2530;47.990;7.866;2024-03-02T07:39:13;2.33;;;1.80;;
5022;SDS011;2530;47.990;7.866;2024-03-02T07:41:39;1.92;;;1.60;;
5022;SDS011;2530;47.990;7.866;2024-03-02T07:44:05;2.50;;;1.70;;
5022;SDS011;2530;47.990;7.866;2024-03-02T07:46:30;2.15;;;1.67;;
5022;SDS011;2530;47.990;7.866;2024-03-02T07:48:56;1.93;;;1.60;;
5022;SDS011;2530;47.990;7.866;2024-03-02T07:51:21;2.00;;;1.67;;
5022;SDS011;2530;47.990;7.866;2024-03-02T07:53:47;1.90;;;1.70;;
5022;SDS011;2530;47.990;7.866;2024-03-02T07:56:12;2.20;;;1.80;;
5022;SDS011;2530;47.990;7.866;2024-03-02T07:58:38;2.22;;;1.73;;
5022;SDS011;2530;47.990;7.866;2024-03-02T08:01:03;3.60;;;1.80;;
5022;SDS011;2530;47.990;7.866;2024-03-02T08:03:29;3.47;;;1.85;;
5022;SDS011;2530;47.990;7.866;2024-03-02T08:05:55;2.30;;;2.00;;
5022;SDS011;2530;47.990;7.866;2024-03-02T08:08:20;2.10;;;1.90;;
5022;SDS011;2530;47.990;7.866;2024-03-02T08:10:46;1.77;;;1.60;;
5022;SDS011;2530;47.990;7.866;2024-03-02T08:13:11;2.03;;;1.83;;
5022;SDS011;2530;47.990;7.866;2024-03-02T08:15:37;1.60;;;1.50;;
5022;SDS011;2530;47.990;7.866;2024-03-02T08:18:02;2.60;;;2.10;;
5022;SDS011;2530;47.990;7.866;2024-03-02T08:20:28;3.00;;;1.95;;
5022;SDS011;2530;47.990;7.866;2024-03-02T08:22:54;1.90;;;1.70;;
5022;SDS011;2530;47.990;7.866;2024-03-02T08:25:20;1.80;;;1.60;;
5022;SDS011;2530;47.990;7.866;2024-03-02T08:27:46;2.10;;;1.90;;
5022;SDS011;2530;47.990;7.866;2024-03-02T08:30:11;2.45;;;1.80;;
5022;SDS011;2530;47.990;7.866;2024-03-02T08:32:37;1.98;;;1.70;;
5022;SDS011;2530;47.990;7.866;2024-03-02T08:35:03;1.95;;;1.80;;
5022;SDS011;2530;47.990;7.866;2024-03-02T08:37:30;2.33;;;1.67;;
5022;SDS011;2530;47.990;7.866;2024-03-02T08:39:55;1.60;;;1.50;;
5022;SDS011;2530;47.990;7.866;2024-03-02T08:42:21;2.00;;;1.80;;
5022;SDS011;2530;47.990;7.866;2024-03-02T08:44:47;4.93;;;1.67;;
5022;SDS011;2530;47.990;7.866;2024-03-02T08:47:13;1.50;;;1.40;;
5022;SDS011;2530;47.990;7.866;2024-03-02T08:49:38;1.40;;;1.30;;
5022;SDS011;2530;47.990;7.866;2024-03-02T08:52:04;1.30;;;1.20;;
5022;SDS011;2530;47.990;7.866;2024-03-02T08:54:30;2.13;;;1.42;;
5022;SDS011;2530;47.990;7.866;2024-03-02T08:56:56;3.40;;;1.60;;
5022;SDS011;2530;47.990;7.866;2024-03-02T08:59:21;1.90;;;1.50;;
5022;SDS011;2530;47.990;7.866;2024-03-02T09:01:47;1.90;;;1.77;;
5022;SDS011;2530;47.990;7.866;2024-03-02T09:04:13;2.42;;;1.50;;
5022;SDS011;2530;47.990;7.866;2024-03-02T09:06:38;1.70;;;1.33;;
5022;SDS011;2530;47.990;7.866;2024-03-02T09:09:04;1.27;;;1.17;;
5022;SDS011;2530;47.990;7.866;2024-03-02T09:11:29;1.50;;;1.30;;
5022;SDS011;2530;47.990;7.866;2024-03-02T09:13:55;2.22;;;1.30;;
5022;SDS011;2530;47.990;7.866;2024-03-02T09:16:21;5.38;;;4.55;;
5022;SDS011;2530;47.990;7.866;2024-03-02T09:18:47;2.00;;;1.20;;
5022;SDS011;2530;47.990;7.866;2024-03-02T09:21:12;2.00;;;1.10;;
5022;SDS011;2530;47.990;7.866;2024-03-02T09:23:38;1.10;;;1.00;;
5022;SDS011;2530;47.990;7.866;2024-03-02T09:26:05;1.30;;;1.02;;
5022;SDS011;2530;47.990;7.866;2024-03-02T09:28:30;1.60;;;0.90;;
5022;SDS011;2530;47.990;7.866;2024-03-02T09:30:56;1.20;;;1.10;;
5022;SDS011;2530;47.990;7.866;2024-03-02T09:33:21;1.40;;;1.00;;
5022;SDS011;2530;47.990;7.866;2024-03-02T09:35:47;1.10;;;1.00;;
5022;SDS011;2530;47.990;7.866;2024-03-02T09:38:13;1.60;;;1.00;;
5022;SDS011;2530;47.990;7.866;2024-03-02T09:40:41;1.30;;;0.80;;
5022;SDS011;2530;47.990;7.866;2024-03-02T09:43:07;0.87;;;0.87;;
5022;SDS011;2530;47.990;7.866;2024-03-02T09:45:33;0.98;;;0.70;;
5022;SDS011;2530;47.990;7.866;2024-03-02T09:47:59;0.70;;;0.70;;
5022;SDS011;2530;47.990;7.866;2024-03-02T09:50:24;0.97;;;0.70;;
5022;SDS011;2530;47.990;7.866;2024-03-02T09:52:50;0.83;;;0.70;;
5022;SDS011;2530;47.990;7.866;2024-03-02T09:55:16;1.40;;;0.80;;
5022;SDS011;2530;47.990;7.866;2024-03-02T09:57:43;1.20;;;0.70;;
5022;SDS011;2530;47.990;7.866;2024-03-02T10:00:10;1.00;;;0.70;;
5022;SDS011;2530;47.990;7.866;2024-03-02T10:02:40;1.00;;;0.70;;
5022;SDS011;2530;47.990;7.866;2024-03-02T10:05:07;0.80;;;0.60;;
5022;SDS011;2530;47.990;7.866;2024-03-02T10:07:33;0.95;;;0.70;;
5022;SDS011;2530;47.990;7.866;2024-03-02T10:09:59;0.60;;;0.60;;
5022;SDS011;2530;47.990;7.866;2024-03-02T10:12:38;1.38;;;0.60;;
5022;SDS011;2530;47.990;7.866;2024-03-02T10:15:04;0.80;;;0.50;;
5022;SDS011;2530;47.990;7.866;2024-03-02T10:17:31;1.70;;;0.70;;
5022;SDS011;2530;47.990;7.866;2024-03-02T10:19:56;0.60;;;0.50;;
5022;SDS011;2530;47.990;7.866;2024-03-02T10:22:22;0.90;;;0.60;;
5022;SDS011;2530;47.990;7.866;2024-03-02T10:24:48;0.85;;;0.70;;
5022;SDS011;2530;47.990;7.866;2024-03-02T10:27:18;1.30;;;0.80;;
5022;SDS011;2530;47.990;7.866;2024-03-02T10:29:55;1.40;;;0.70;;
5022;SDS011;2530;47.990;7.866;2024-03-02T10:32:21;1.20;;;0.60;;
5022;SDS011;2530;47.990;7.866;2024-03-02T10:34:47;0.90;;;0.80;;
5022;SDS011;2530;47.990;7.866;2024-03-02T10:37:15;0.85;;;0.70;;
5022;SDS011;2530;47.990;7.866;2024-03-02T10:39:42;1.08;;;0.75;;
5022;SDS011;2530;47.990;7.866;2024-03-02T10:42:08;1.40;;;0.80;;
5022;SDS011;2530;47.990;7.866;2024-03-02T10:44:34;0.80;;;0.70;;
5022;SDS011;2530;47.990;7.866;2024-03-02T10:47:00;1.10;;;0.82;;
5022;SDS011;2530;47.990;7.866;2024-03-02T10:49:28;1.00;;;0.80;;
5022;SDS011;2530;47.990;7.866;2024-03-02T10:51:55;0.90;;;0.80;;
5022;SDS011;2530;47.990;7.866;2024-03-02T10:54:22;1.30;;;0.70;;
5022;SDS011;2530;47.990;7.866;2024-03-02T10:56:51;2.03;;;1.25;;
5022;SDS011;2530;47.990;7.866;2024-03-02T11:01:58;2.25;;;1.00;;
5022;SDS011;2530;47.990;7.866;2024-03-02T11:04:28;0.77;;;0.70;;
5022;SDS011;2530;47.990;7.866;2024-03-02T11:07:05;1.20;;;0.70;;
5022;SDS011;2530;47.990;7.866;2024-03-02T11:09:37;1.30;;;0.80;;
5022;SDS011;2530;47.990;7.866;2024-03-02T11:12:13;1.60;;;0.60;;
5022;SDS011;2530;47.990;7.866;2024-03-02T11:14:44;0.88;;;0.70;;
5022;SDS011;2530;47.990;7.866;2024-03-02T11:17:10;1.10;;;0.70;;
5022;SDS011;2530;47.990;7.866;2024-03-02T11:19:38;2.30;;;1.00;;
5022;SDS011;2530;47.990;7.866;2024-03-02T11:22:05;0.93;;;0.80;;
5022;SDS011;2530;47.990;7.866;2024-03-02T11:24:31;0.88;;;0.60;;
5022;SDS011;2530;47.990;7.866;2024-03-02T11:27:03;0.60;;;0.60;;
5022;SDS011;2530;47.990;7.866;2024-03-02T11:32:16;0.80;;;0.70;;
5022;SDS011;2530;47.990;7.866;2024-03-02T11:34:47;1.17;;;0.70;;
5022;SDS011;2530;47.990;7.866;2024-03-02T11:37:14;1.48;;;0.90;;
5022;SDS011;2530;47.990;7.866;2024-03-02T11:39:42;1.10;;;0.98;;
5022;SDS011;2530;47.990;7.866;2024-03-02T11:42:09;1.20;;;1.10;;
5022;SDS011;2530;47.990;7.866;2024-03-02T11:44:37;1.20;;;0.90;;
5022;SDS011;2530;47.990;7.866;2024-03-02T11:47:07;1.00;;;0.70;;
5022;SDS011;2530;47.990;7.866;2024-03-02T11:49:39;1.00;;;0.90;;
5022;SDS011;2530;47.990;7.866;2024-03-02T11:52:07;0.95;;;0.80;;
5022;SDS011;2530;47.990;7.866;2024-03-02T11:54:34;1.00;;;0.90;;
5022;SDS011;2530;47.990;7.866;2024-03-02T11:57:11;1.00;;;0.90;;
5022;SDS011;2530;47.990;7.866;2024-03-02T11:59:39;0.80;;;0.70;;
5022;SDS011;2530;47.990;7.866;2024-03-02T12:02:05;0.90;;;0.80;;
5022;SDS011;2530;47.990;7.866;2024-03-02T12:04:31;1.40;;;1.00;;
5022;SDS011;2530;47.990;7.866;2024-03-02T12:06:58;1.00;;;0.80;;
5022;SDS011;2530;47.990;7.866;2024-03-02T12:09:29;1.10;;;0.70;;
5022;SDS011;2530;47.990;7.866;2024-03-02T12:12:05;0.70;;;0.60;;
5022;SDS011;2530;47.990;7.866;2024-03-02T12:14:36;1.80;;;0.73;;
5022;SDS011;2530;47.990;7.866;2024-03-02T12:17:02;0.80;;;0.80;;
5022;SDS011;2530;47.990;7.866;2024-03-02T12:19:29;0.80;;;0.80;;
5022;SDS011;2530;47.990;7.866;2024-03-02T12:21:58;0.90;;;0.80;;
5022;SDS011;2530;47.990;7.866;2024-03-02T12:24:27;2.10;;;0.90;;
5022;SDS011;2530;47.990;7.866;2024-03-02T12:26:53;0.90;;;0.70;;
5022;SDS011;2530;47.990;7.866;2024-03-02T12:29:19;0.77;;;0.70;;
5022;SDS011;2530;47.990;7.866;2024-03-02T12:31:47;1.10;;;0.80;;
5022;SDS011;2530;47.990;7.866;2024-03-02T12:34:14;1.13;;;0.80;;
5022;SDS011;2530;47.990;7.866;2024-03-02T12:36:41;1.30;;;0.90;;
5022;SDS011;2530;47.990;7.866;2024-03-02T12:39:08;0.90;;;0.70;;
5022;SDS011;2530;47.990;7.866;2024-03-02T12:41:38;1.00;;;0.90;;
5022;SDS011;2530;47.990;7.866;2024-03-02T12:44:04;0.95;;;0.80;;
5022;SDS011;2530;47.990;7.866;2024-03-02T12:46:30;0.80;;;0.70;;
5022;SDS011;2530;47.990;7.866;2024-03-02T12:48:57;1.20;;;0.60;;
5022;SDS011;2530;47.990;7.866;2024-03-02T12:51:24;1.05;;;0.70;;
5022;SDS011;2530;47.990;7.866;2024-03-02T12:53:53;2.10;;;0.70;;
5022;SDS011;2530;47.990;7.866;2024-03-02T12:56:22;0.67;;;0.60;;
5022;SDS011;2530;47.990;7.866;2024-03-02T12:58:52;1.20;;;0.70;;
5022;SDS011;2530;47.990;7.866;2024-03-02T13:01:21;1.10;;;0.70;;
5022;SDS011;2530;47.990;7.866;2024-03-02T13:03:50;0.60;;;0.60;;
5022;SDS011;2530;47.990;7.866;2024-03-02T13:06:17;1.70;;;0.50;;
5022;SDS011;2530;47.990;7.866;2024-03-02T13:08:44;2.50;;;0.80;;
5022;SDS011;2530;47.990;7.866;2024-03-02T13:11:10;0.90;;;0.70;;
5022;SDS011;2530;47.990;7.866;2024-03-02T13:13:36;0.80;;;0.70;;
5022;SDS011;2530;47.990;7.866;2024-03-02T13:16:03;0.73;;;0.70;;
5022;SDS011;2530;47.990;7.866;2024-03-02T13:18:33;0.85;;;0.75;;
5022;SDS011;2530;47.990;7.866;2024-03-02T13:20:58;1.20;;;0.80;;
5022;SDS011;2530;47.990;7.866;2024-03-02T13:23:24;0.90;;;0.70;;
5022;SDS011;2530;47.990;7.866;2024-03-02T13:25:50;0.80;;;0.70;;
5022;SDS011;2530;47.990;7.866;2024-03-02T13:28:15;0.87;;;0.87;;
5022;SDS011;2530;47.990;7.866;2024-03-02T13:30:41;1.00;;;0.90;;
5022;SDS011;2530;47.990;7.866;2024-03-02T13:33:07;0.87;;;0.70;;
5022;SDS011;2530;47.990;7.866;2024-03-02T13:35:32;0.90;;;0.70;;
5022;SDS011;2530;47.990;7.866;2024-03-02T13:37:58;0.80;;;0.70;;
5022;SDS011;2530;47.990;7.866;2024-03-02T13:40:23;0.90;;;0.70;;
5022;SDS011;2530;47.990;7.866;2024-03-02T13:42:49;0.70;;;0.60;;
5022;SDS011;2530;47.990;7.866;2024-03-02T13:45:17;1.30;;;1.05;;
5022;SDS011;2530;47.990;7.866;2024-03-02T13:47:43;1.60;;;0.88;;
5022;SDS011;2530;47.990;7.866;2024-03-02T13:50:08;1.27;;;0.80;;
5022;SDS011;2530;47.990;7.866;2024-03-02T13:52:34;0.80;;;0.80;;
5022;SDS011;2530;47.990;7.866;2024-03-02T13:55:00;2.43;;;0.80;;
5022;SDS011;2530;47.990;7.866;2024-03-02T13:57:25;0.93;;;0.65;;
5022;SDS011;2530;47.990;7.866;2024-03-02T13:59:51;0.63;;;0.50;;
5022;SDS011;2530;47.990;7.866;2024-03-02T14:02:17;1.10;;;0.60;;
5022;SDS011;2530;47.990;7.866;2024-03-02T14:04:43;1.10;;;0.70;;
5022;SDS011;2530;47.990;7.866;2024-03-02T14:07:09;1.20;;;0.90;;
5022;SDS011;2530;47.990;7.866;2024-03-02T14:09:37;1.45;;;1.00;;
5022;SDS011;2530;47.990;7.866;2024-03-02T14:12:02;1.10;;;0.90;;
5022;SDS011;2530;47.990;7.866;2024-03-02T14:14:29;1.30;;;1.00;;
5022;SDS011;2530;47.990;7.866;2024-03-02T14:16:54;0.97;;;0.70;;
5022;SDS011;2530;47.990;7.866;2024-03-02T14:19:29;1.58;;;1.00;;
5022;SDS011;2530;47.990;7.866;2024-03-02T14:21:55;1.30;;;1.10;;
5022;SDS011;2530;47.990;7.866;2024-03-02T14:24:21;1.20;;;0.90;;
5022;SDS011;2530;47.990;7.866;2024-03-02T14:26:50;1.20;;;0.70;;
5022;SDS011;2530;47.990;7.866;2024-03-02T14:29:16;1.02;;;0.90;;
5022;SDS011;2530;47.990;7.866;2024-03-02T14:31:43;2.70;;;1.30;;
5022;SDS011;2530;47.990;7.866;2024-03-02T14:34:09;1.40;;;1.20;;
5022;SDS011;2530;47.990;7.866;2024-03-02T14:36:34;1.40;;;1.20;;
5022;SDS011;2530;47.990;7.866;2024-03-02T14:39:00;2.40;;;1.05;;
5022;SDS011;2530;47.990;7.866;2024-03-02T14:41:26;1.10;;;1.00;;
5022;SDS011;2530;47.990;7.866;2024-03-02T14:43:51;1.30;;;1.10;;
5022;SDS011;2530;47.990;7.866;2024-03-02T14:46:17;1.48;;;1.10;;
5022;SDS011;2530;47.990;7.866;2024-03-02T14:48:43;1.67;;;1.30;;
5022;SDS011;2530;47.990;7.866;2024-03-02T14:51:09;1.30;;;1.20;;
5022;SDS011;2530;47.990;7.866;2024-03-02T14:53:35;1.40;;;1.10;;
5022;SDS011;2530;47.990;7.866;2024-03-02T14:56:01;2.58;;;1.40;;
5022;SDS011;2530;47.990;7.866;2024-03-02T14:58:27;1.50;;;1.10;;
5022;SDS011;2530;47.990;7.866;2024-03-02T15:00:52;2.07;;;1.30;;
5022;SDS011;2530;47.990;7.866;2024-03-02T15:03:18;1.23;;;1.13;;
5022;SDS011;2530;47.990;7.866;2024-03-02T15:05:44;1.20;;;1.10;;
5022;SDS011;2530;47.990;7.866;2024-03-02T15:08:10;1.40;;;1.10;;
5022;SDS011;2530;47.990;7.866;2024-03-02T15:10:36;2.17;;;1.60;;
5022;SDS011;2530;47.990;7.866;2024-03-02T15:13:02;1.10;;;0.98;;
5022;SDS011;2530;47.990;7.866;2024-03-02T15:15:28;1.20;;;1.10;;
5022;SDS011;2530;47.990;7.866;2024-03-02T15:17:54;1.40;;;1.20;;